Decoded Metar for UKLI (IVANO-FRANKIVSK in UKRAINE) (IATA:N/A) | Meteo·Mobile Aviation Weather
aviador You're here:

UKLI Decoded Metar

IVANO-FRANKIVSK in UKRAINE
Report Time2019-10-21 08:00:00
UTC Time2019-10-21 08:26:44
Flight Rules vfr VFR
WindVRB at 2 kt
Visibility9999 m
Phenomena:N/A
Clouds:N/A
Expected CloudBase > 2,000 ft AGL from Temp-Dew spread
CeilingNone
Temp14°C (ISA +1)
Dew Point09°C (72% RH)
AAT13.1°C
QNH1021 hPa
Density Alt906 ft
Elevation919 ft
Report Wrong Elevation
Raw Report
UKLI 210800Z VRB01MPS CAVOK 14/09 Q1021 R28/090070 NOSIG=

Extra information for UKLI:More info

Metar Taf Metar & Taf Last 4 Metars F.Rules Stats Wind Profile Meteogram Temp Stats Airport Information Weather charts Add Link Nearby VenuesMetar ALERT Operation Metar Decoded Social comments